Time;durP1;ratioP1;P1;durP2;ratioP2;P2;SDS_P1;SDS_P2;PMS_P1;PMS_P2;Temp;Humidity;BMP_temperature;BMP_pressure;BME280_temperature;BME280_humidity;BME280_pressure;Samples;Min_cycle;Max_cycle;Signal;HPM_P1;HPM_P2
2024/01/12 04:12:58;;;;;;;13.90;6.37;;;;;;;-0.78;100.00;102235.09;4897244;29;20164;-90
2024/01/12 04:15:26;;;;;;;16.17;6.13;;;;;;;-0.74;100.00;102233.56;4881457;29;20127;-90
2024/01/12 04:17:53;;;;;;;11.77;5.90;;;;;;;-0.65;100.00;102237.50;4881427;29;20055;-89
2024/01/12 04:20:20;;;;;;;15.23;5.73;;;;;;;-0.62;100.00;102249.75;4863604;29;20048;-90
2024/01/12 04:22:48;;;;;;;12.83;6.67;;;;;;;-0.68;100.00;102241.63;4870122;29;20041;-91
2024/01/12 04:25:16;;;;;;;13.07;4.87;;;;;;;-0.66;100.00;102240.94;4896614;29;20135;-90
2024/01/12 04:27:43;;;;;;;12.80;5.23;;;;;;;-0.69;100.00;102255.44;4880517;29;20041;-91
2024/01/12 04:30:11;;;;;;;23.10;6.97;;;;;;;-0.62;100.00;102250.63;4896441;29;20044;-91
2024/01/12 04:32:38;;;;;;;9.47;4.87;;;;;;;-0.76;100.00;102248.16;4871047;29;20044;-89
2024/01/12 04:35:07;;;;;;;13.97;6.00;;;;;;;-0.78;100.00;102254.97;4878178;29;20045;-91
2024/01/12 04:37:34;;;;;;;19.20;6.27;;;;;;;-0.77;100.00;102248.97;4863775;29;20065;-90
2024/01/12 04:40:03;;;;;;;14.23;7.07;;;;;;;-0.70;100.00;102244.16;4875812;29;20041;-89
2024/01/12 04:42:31;;;;;;;13.43;6.20;;;;;;;-0.77;100.00;102246.38;4873747;29;20506;-89
2024/01/12 04:44:58;;;;;;;16.03;6.50;;;;;;;-0.73;100.00;102243.13;4886965;29;20514;-90
2024/01/12 04:47:26;;;;;;;14.20;5.90;;;;;;;-0.62;100.00;102252.34;4881438;29;20123;-89
2024/01/12 04:49:53;;;;;;;14.73;7.80;;;;;;;-0.73;100.00;102253.50;4864253;29;20059;-88
2024/01/12 04:52:20;;;;;;;17.77;7.70;;;;;;;-0.62;100.00;102260.13;4880509;29;20502;-89
2024/01/12 04:54:48;;;;;;;23.00;7.37;;;;;;;-0.82;100.00;102253.06;4878510;29;20068;-89
2024/01/12 04:57:15;;;;;;;14.53;6.40;;;;;;;-0.70;100.00;102246.75;4894517;29;20392;-89
2024/01/12 04:59:42;;;;;;;15.13;6.83;;;;;;;-0.69;100.00;102245.94;4870751;29;20041;-89
2024/01/12 05:02:10;;;;;;;14.50;6.73;;;;;;;-0.69;100.00;102245.94;4873243;29;20072;-89
2024/01/12 05:04:37;;;;;;;16.90;6.57;;;;;;;-0.76;100.00;102238.66;4898039;29;20059;-89
2024/01/12 05:07:04;;;;;;;15.03;6.33;;;;;;;-0.83;100.00;102243.50;4905507;29;20040;-90
2024/01/12 05:09:32;;;;;;;18.70;6.87;;;;;;;-0.87;100.00;102235.53;4885691;29;20044;-89
2024/01/12 05:12:19;;;;;;;12.53;7.10;;;;;;;-0.81;100.00;102237.56;4889341;29;20586;-89
2024/01/12 05:14:46;;;;;;;16.73;7.50;;;;;;;-0.88;100.00;102225.97;4879536;29;20072;-88
2024/01/12 05:17:14;;;;;;;36.43;17.97;;;;;;;-0.86;100.00;102228.63;4896058;29;20028;-90
2024/01/12 05:19:41;;;;;;;18.17;9.83;;;;;;;-0.85;100.00;102214.84;4892290;29;20068;-89
2024/01/12 05:22:09;;;;;;;21.53;11.07;;;;;;;-0.84;100.00;102216.66;4878149;29;20048;-88
2024/01/12 05:24:39;;;;;;;17.97;9.97;;;;;;;-0.72;100.00;102226.75;4862548;29;20373;-89
2024/01/12 05:27:07;;;;;;;19.07;10.80;;;;;;;-0.59;100.00;102226.53;4895476;29;20037;-90
2024/01/12 05:29:34;;;;;;;22.43;13.27;;;;;;;-0.76;100.00;102227.38;4895802;29;20060;-90
2024/01/12 05:32:02;;;;;;;16.50;9.00;;;;;;;-0.75;100.00;102231.78;4894494;29;20120;-90
2024/01/12 05:34:29;;;;;;;14.60;7.80;;;;;;;-0.79;100.00;102228.13;4880823;29;20048;-90
2024/01/12 05:36:57;;;;;;;18.63;8.23;;;;;;;-0.81;100.00;102234.97;4862814;29;20044;-90
2024/01/12 05:39:24;;;;;;;21.33;8.60;;;;;;;-0.88;100.00;102223.38;4880752;29;20080;-88
2024/01/12 05:41:51;;;;;;;25.90;12.73;;;;;;;-0.83;100.00;102226.22;4865102;29;20462;-91
2024/01/12 05:44:18;;;;;;;34.20;22.60;;;;;;;-0.87;100.00;102245.91;4865158;29;20139;-89
2024/01/12 05:46:46;;;;;;;20.20;10.33;;;;;;;-0.91;100.00;102235.31;4857101;29;20112;-88
2024/01/12 05:49:13;;;;;;;21.90;9.00;;;;;;;-0.88;100.00;102244.13;4872436;29;20056;-90
2024/01/12 05:51:41;;;;;;;20.27;11.13;;;;;;;-0.86;100.00;102249.38;4896345;29;20439;-89
2024/01/12 05:54:08;;;;;;;19.37;10.23;;;;;;;-0.88;100.00;102248.44;4879854;29;20051;-89
2024/01/12 05:56:35;;;;;;;22.40;9.93;;;;;;;-0.89;100.00;102244.94;4879959;29;20398;-89
2024/01/12 05:59:03;;;;;;;18.47;8.57;;;;;;;-0.88;100.00;102254.50;4871311;29;20100;-89
2024/01/12 06:01:31;;;;;;;16.73;7.67;;;;;;;-0.81;100.00;102250.53;4882056;29;20418;-88
2024/01/12 06:03:59;;;;;;;16.43;7.17;;;;;;;-0.66;100.00;102258.22;4885842;29;20047;-88
2024/01/12 06:06:27;;;;;;;12.73;5.90;;;;;;;-0.80;100.00;102249.72;4906354;29;20048;-88
2024/01/12 06:08:55;;;;;;;13.37;7.30;;;;;;;-0.86;100.00;102249.38;4885275;29;20044;-88
2024/01/12 06:11:23;;;;;;;15.93;6.80;;;;;;;-0.86;100.00;102247.69;4887889;29;20127;-88
2024/01/12 06:13:51;;;;;;;13.13;6.93;;;;;;;-0.87;100.00;102250.19;4888820;29;20059;-89
2024/01/12 06:16:22;;;;;;;14.17;6.37;;;;;;;-0.86;100.00;102242.50;4901402;29;20041;-89
2024/01/12 06:18:50;;;;;;;11.90;6.17;;;;;;;-0.86;100.00;102250.28;4882551;29;20092;-87
2024/01/12 06:21:18;;;;;;;12.30;6.17;;;;;;;-0.90;100.00;102252.66;4899094;29;20055;-88
2024/01/12 06:23:46;;;;;;;13.60;6.27;;;;;;;-0.81;100.00;102245.34;4882163;29;20502;-87
2024/01/12 06:26:14;;;;;;;14.27;7.17;;;;;;;-0.84;100.00;102245.19;4866895;29;20100;-88
2024/01/12 06:28:42;;;;;;;14.23;6.80;;;;;;;-0.74;100.00;102247.44;4866626;29;20135;-87
2024/01/12 06:31:10;;;;;;;13.20;5.83;;;;;;;-0.74;100.00;102242.25;4922216;23;20052;-89
2024/01/12 06:33:37;;;;;;;13.43;5.20;;;;;;;-0.87;100.00;102251.09;4911566;29;20071;-88
2024/01/12 06:36:05;;;;;;;10.17;5.10;;;;;;;-0.92;100.00;102246.50;4912946;29;20436;-89
2024/01/12 06:38:33;;;;;;;10.83;4.97;;;;;;;-0.95;100.00;102247.22;4867271;29;20066;-90
2024/01/12 06:41:02;;;;;;;10.50;5.10;;;;;;;-0.90;100.00;102242.28;4893052;29;20040;-89
2024/01/12 06:43:29;;;;;;;12.70;5.87;;;;;;;-0.86;100.00;102233.81;4897900;29;20048;-89
2024/01/12 06:45:58;;;;;;;13.27;5.87;;;;;;;-0.81;100.00;102232.38;4881423;29;20056;-90
2024/01/12 06:48:26;;;;;;;11.10;5.00;;;;;;;-0.90;100.00;102227.59;4914645;29;20040;-90
2024/01/12 06:50:53;;;;;;;13.63;5.70;;;;;;;-0.88;100.00;102225.06;4930125;29;20024;-87
2024/01/12 06:53:21;;;;;;;13.23;5.53;;;;;;;-0.98;100.00;102213.34;4907826;29;20048;-87
2024/01/12 06:55:48;;;;;;;11.30;5.43;;;;;;;-0.96;100.00;102219.50;4910027;29;20079;-89
2024/01/12 06:58:15;;;;;;;12.97;6.10;;;;;;;-0.98;100.00;102209.84;4914139;29;20040;-88
2024/01/12 07:00:42;;;;;;;13.33;5.80;;;;;;;-0.85;100.00;102201.88;4877286;29;20099;-91
2024/01/12 07:03:10;;;;;;;12.90;5.80;;;;;;;-0.93;100.00;102200.59;4890086;29;20055;-89
2024/01/12 07:05:37;;;;;;;12.00;5.70;;;;;;;-0.94;100.00;102211.78;4879706;29;20517;-90
2024/01/12 07:08:05;;;;;;;14.87;6.30;;;;;;;-0.98;100.00;102202.97;4900768;29;20413;-90
2024/01/12 07:10:33;;;;;;;12.60;6.03;;;;;;;-0.97;100.00;102207.34;4882573;29;20044;-89
2024/01/12 07:13:00;;;;;;;15.40;6.13;;;;;;;-0.95;100.00;102216.09;4882533;29;20139;-89
2024/01/12 07:15:31;;;;;;;16.93;7.13;;;;;;;-0.94;100.00;102211.78;4879860;29;20486;-90
2024/01/12 07:18:01;;;;;;;13.52;5.68;;;;;;;-0.79;100.00;102199.59;4883243;29;20044;-89
2024/01/12 07:20:28;;;;;;;14.27;5.93;;;;;;;-0.92;100.00;102192.91;4897800;29;20067;-88
2024/01/12 07:22:56;;;;;;;11.90;5.23;;;;;;;-0.81;100.00;102177.88;4913078;29;20080;-87
2024/01/12 07:25:23;;;;;;;13.07;5.47;;;;;;;-0.88;100.00;102176.66;4889491;29;20505;-90
2024/01/12 07:27:50;;;;;;;15.17;6.80;;;;;;;-0.99;100.00;102177.84;4897433;29;20044;-89
2024/01/12 07:30:36;;;;;;;15.23;6.13;;;;;;;-0.93;100.00;102169.47;4914052;29;20055;-90
2024/01/12 07:33:04;;;;;;;11.57;5.63;;;;;;;-0.98;100.00;102168.34;4915590;29;20044;-89
2024/01/12 07:35:31;;;;;;;14.20;5.87;;;;;;;-0.98;100.00;102179.63;4879779;29;20553;-88
2024/01/12 07:37:59;;;;;;;10.17;6.03;;;;;;;-0.97;100.00;102170.13;4890159;29;20113;-89
2024/01/12 07:40:27;;;;;;;13.27;7.07;;;;;;;-0.85;100.00;102173.31;4896827;29;20494;-89
2024/01/12 07:42:54;;;;;;;14.40;7.53;;;;;;;-0.96;100.00;102178.00;4893685;29;20056;-90
2024/01/12 07:45:22;;;;;;;11.20;5.23;;;;;;;-1.00;100.00;102176.06;4900686;29;20044;-90
2024/01/12 07:47:49;;;;;;;14.57;6.30;;;;;;;-1.01;100.00;102175.97;4917450;29;20041;-89
2024/01/12 07:50:16;;;;;;;13.07;7.03;;;;;;;-0.98;100.00;102169.25;4885457;29;20454;-89
2024/01/12 07:52:44;;;;;;;13.63;8.73;;;;;;;-0.95;100.00;102163.31;4880993;29;20064;-89
2024/01/12 07:55:11;;;;;;;15.77;7.67;;;;;;;-0.92;100.00;102161.78;4903670;29;20054;-89
2024/01/12 07:57:39;;;;;;;13.30;6.03;;;;;;;-0.93;100.00;102164.28;4903028;29;20070;-88
2024/01/12 08:00:07;;;;;;;13.47;5.30;;;;;;;-0.82;100.00;102162.22;4900916;29;20123;-90
2024/01/12 08:03:02;;;;;;;9.90;5.43;;;;;;;-0.76;100.00;102145.22;4897389;29;20048;-90
2024/01/12 08:05:30;;;;;;;9.50;5.23;;;;;;;-0.83;100.00;102156.16;4900861;29;20072;-91
2024/01/12 08:08:00;;;;;;;13.20;5.23;;;;;;;-0.82;100.00;102152.75;4917593;29;20096;-90
2024/01/12 08:10:28;;;;;;;12.93;5.57;;;;;;;-0.72;100.00;102154.09;4901172;29;20135;-90
2024/01/12 08:12:55;;;;;;;9.80;5.07;;;;;;;-0.77;100.00;102148.66;4899517;29;20040;-89
2024/01/12 08:15:22;;;;;;;14.63;6.00;;;;;;;-0.78;100.00;102145.97;4915802;29;20048;-89
2024/01/12 08:17:50;;;;;;;12.37;6.20;;;;;;;-0.72;100.00;102152.38;4884916;29;20040;-89
2024/01/12 08:20:17;;;;;;;11.00;5.90;;;;;;;-0.72;100.00;102149.78;4884555;29;20424;-90
2024/01/12 08:22:44;;;;;;;14.00;5.57;;;;;;;-0.69;100.00;102142.13;4900180;29;20501;-90
2024/01/12 08:25:12;;;;;;;14.40;6.20;;;;;;;-0.63;100.00;102149.34;4885057;29;20044;-89
2024/01/12 08:27:39;;;;;;;18.03;7.30;;;;;;;-0.48;100.00;102138.81;4898689;29;20466;-90
2024/01/12 08:30:07;;;;;;;15.53;7.33;;;;;;;-0.52;100.00;102149.84;4884697;29;20241;-90
2024/01/12 08:32:35;;;;;;;18.80;8.83;;;;;;;-0.56;100.00;102159.22;4915290;29;20421;-89
2024/01/12 08:35:04;;;;;;;18.67;7.20;;;;;;;-0.60;100.00;102149.47;4900109;29;20040;-91
2024/01/12 08:37:32;;;;;;;18.03;8.33;;;;;;;-0.52;100.00;102149.84;4882620;29;20055;-90
2024/01/12 08:39:59;;;;;;;19.40;8.43;;;;;;;-0.46;100.00;102163.13;4898975;29;20044;-88
2024/01/12 08:42:26;;;;;;;19.53;8.80;;;;;;;-0.45;100.00;102151.94;4884410;29;20044;-89
2024/01/12 08:44:53;;;;;;;19.40;9.77;;;;;;;-0.40;100.00;102153.06;4884940;29;20067;-89
2024/01/12 08:47:21;;;;;;;21.00;9.57;;;;;;;-0.39;100.00;102141.84;4878486;29;20045;-89
2024/01/12 08:49:48;;;;;;;22.47;10.27;;;;;;;-0.39;100.00;102141.84;4886799;29;20076;-89
2024/01/12 08:52:15;;;;;;;24.60;9.67;;;;;;;-0.35;100.00;102134.25;4910443;29;20076;-90
2024/01/12 08:54:43;;;;;;;22.13;9.97;;;;;;;-0.28;100.00;102146.72;4885354;29;20048;-90
2024/01/12 08:57:11;;;;;;;25.60;10.63;;;;;;;-0.21;100.00;102141.81;4892883;29;20043;-90
2024/01/12 08:59:38;;;;;;;23.30;9.97;;;;;;;-0.22;100.00;102134.84;4912306;29;20067;-89
2024/01/12 09:02:06;;;;;;;23.57;10.13;;;;;;;-0.16;100.00;102127.34;4896567;29;20040;-90
2024/01/12 09:04:34;;;;;;;23.93;10.80;;;;;;;-0.16;100.00;102127.34;4890271;29;20490;-90
2024/01/12 09:07:02;;;;;;;24.77;9.67;;;;;;;-0.06;100.00;102126.94;4898049;29;20072;-90
2024/01/12 09:09:29;;;;;;;21.77;10.53;;;;;;;-0.08;100.00;102129.47;4866600;29;20044;-89
2024/01/12 09:11:57;;;;;;;22.30;9.57;;;;;;;-0.03;100.00;102127.97;4916123;29;20040;-90
2024/01/12 09:14:27;;;;;;;19.27;9.43;;;;;;;-0.08;100.00;102121.69;4899977;29;20481;-91
2024/01/12 09:16:54;;;;;;;22.33;9.73;;;;;;;-0.06;100.00;102129.53;4894711;29;20048;-88
2024/01/12 09:19:22;;;;;;;19.70;8.67;;;;;;;-0.07;100.00;102130.38;4879014;29;20048;-89
2024/01/12 09:21:49;;;;;;;22.37;8.93;;;;;;;0.04;100.00;102126.53;4878654;29;20055;-90
2024/01/12 09:24:17;;;;;;;17.93;8.33;;;;;;;0.06;100.00;102116.22;4863523;29;20048;-89
2024/01/12 09:26:44;;;;;;;20.10;8.10;;;;;;;0.05;100.00;102114.44;4866706;29;20127;-89
2024/01/12 09:29:12;;;;;;;17.13;8.80;;;;;;;0.02;100.00;102111.72;4897439;29;20099;-90
2024/01/12 09:31:39;;;;;;;23.47;8.40;;;;;;;-0.03;100.00;102106.28;4925260;29;20114;-90
2024/01/12 09:34:07;;;;;;;20.87;8.30;;;;;;;0.01;100.00;102120.34;4900851;29;20745;-90
2024/01/12 09:36:34;;;;;;;17.20;8.67;;;;;;;0.01;100.00;102120.34;4912564;29;20522;-90
2024/01/12 09:39:02;;;;;;;17.27;7.90;;;;;;;0.01;100.00;102107.34;4896672;29;20502;-90
2024/01/12 09:41:38;;;;;;;15.80;7.87;;;;;;;-0.04;100.00;102108.00;4894926;29;20056;-90
2024/01/12 09:44:08;;;;;;;14.83;7.40;;;;;;;-0.10;100.00;102118.09;4890588;29;20134;-89
2024/01/12 09:46:37;;;;;;;15.00;6.90;;;;;;;-0.15;100.00;102111.84;4896624;29;20442;-90
2024/01/12 09:49:05;;;;;;;14.33;7.83;;;;;;;-0.11;100.00;102113.75;4896479;29;20051;-90
2024/01/12 09:51:33;;;;;;;21.03;9.53;;;;;;;-0.06;100.00;102112.25;4894386;29;20569;-91
2024/01/12 09:54:00;;;;;;;27.30;12.03;;;;;;;-0.10;100.00;102123.31;4886195;29;20238;-91
2024/01/12 09:56:28;;;;;;;30.33;15.83;;;;;;;-0.02;100.00;102121.06;4896741;29;20399;-89
2024/01/12 09:59:08;;;;;;;30.53;15.93;;;;;;;-0.08;100.00;102123.41;4896525;29;20032;-90
2024/01/12 10:01:36;;;;;;;29.33;22.17;;;;;;;-0.08;100.00;102123.41;4908498;29;20410;-90
2024/01/12 10:04:03;;;;;;;19.33;12.70;;;;;;;-0.12;100.00;102124.06;4887777;29;20056;-90
2024/01/12 10:06:32;;;;;;;16.17;10.70;;;;;;;-0.12;100.00;102130.16;4913825;29;20386;-90
2024/01/12 10:09:00;;;;;;;14.63;7.93;;;;;;;-0.11;100.00;102133.63;4899789;29;20043;-91
2024/01/12 10:11:27;;;;;;;14.53;7.40;;;;;;;-0.15;100.00;102114.44;4895892;29;20051;-90
2024/01/12 10:13:55;;;;;;;16.67;8.43;;;;;;;-0.14;100.00;102126.59;4895641;29;20413;-90
2024/01/12 10:16:28;;;;;;;15.17;8.07;;;;;;;-0.31;100.00;102115.41;4896324;29;20527;-91
2024/01/12 10:18:57;;;;;;;15.52;7.13;;;;;;;-0.26;100.00;102118.22;4908780;29;20125;-91
2024/01/12 10:21:25;;;;;;;15.67;7.47;;;;;;;-0.22;100.00;102119.28;4893684;29;20087;-91
2024/01/12 10:24:03;;;;;;;15.57;8.03;;;;;;;-0.24;100.00;102110.53;4878305;29;20078;-90
2024/01/12 10:26:31;;;;;;;14.13;7.60;;;;;;;-0.23;100.00;102108.00;4902672;29;20059;-89
2024/01/12 10:29:03;;;;;;;17.30;8.10;;;;;;;-0.22;100.00;102099.38;4887869;29;20048;-88
2024/01/12 10:31:30;;;;;;;18.40;9.90;;;;;;;-0.32;100.00;102105.84;4907848;29;20054;-90
2024/01/12 10:34:00;;;;;;;18.30;9.70;;;;;;;-0.29;100.00;102103.38;4878666;29;20040;-91
2024/01/12 10:36:30;;;;;;;21.33;10.13;;;;;;;-0.26;100.00;102106.94;4894883;29;20059;-90
2024/01/12 10:38:58;;;;;;;18.20;9.03;;;;;;;-0.32;100.00;102113.66;4893129;29;20040;-90
2024/01/12 10:41:26;;;;;;;17.17;8.07;;;;;;;-0.32;100.00;102100.66;4879915;29;20075;-90
2024/01/12 10:43:57;;;;;;;17.77;9.13;;;;;;;-0.22;100.00;102095.91;4911040;29;20107;-90
2024/01/12 10:46:37;;;;;;;18.43;8.73;;;;;;;-0.21;100.00;102093.34;4895886;29;20581;-90
2024/01/12 10:49:14;;;;;;;15.40;7.97;;;;;;;-0.17;100.00;102087.50;4895009;29;20048;-89
2024/01/12 10:52:00;;;;;;;15.30;7.70;;;;;;;-0.25;100.00;102093.13;4877768;29;20068;-89
2024/01/12 10:54:43;;;;;;;14.97;7.40;;;;;;;-0.21;100.00;102087.28;4894201;29;20052;-90
2024/01/12 10:57:11;;;;;;;17.37;7.70;;;;;;;-0.32;100.00;102082.47;4879919;29;20485;-90
2024/01/12 10:59:39;;;;;;;16.07;7.87;;;;;;;-0.26;100.00;102081.84;4909223;29;20164;-89
2024/01/12 11:02:10;;;;;;;17.97;9.87;;;;;;;-0.20;100.00;102087.34;4890400;29;20048;-90
2024/01/12 11:04:37;;;;;;;21.17;9.33;;;;;;;-0.30;100.00;102095.53;4901215;29;20047;-89
2024/01/12 11:07:04;;;;;;;20.77;10.40;;;;;;;-0.25;100.00;102094.06;4880052;29;20052;-90
2024/01/12 11:09:32;;;;;;;23.43;12.97;;;;;;;-0.17;100.00;102095.28;4878260;29;20326;-90
2024/01/12 11:12:03;;;;;;;27.90;13.53;;;;;;;-0.26;100.00;102092.25;4896194;29;20079;-90
2024/01/12 11:14:31;;;;;;;18.57;8.67;;;;;;;-0.19;100.00;102091.72;4878411;29;20044;-90
2024/01/12 11:16:59;;;;;;;20.60;10.23;;;;;;;-0.17;100.00;102089.19;4862186;29;20048;-90
2024/01/12 11:19:27;;;;;;;16.20;9.37;;;;;;;-0.17;100.00;102074.53;4864091;29;20074;-90
2024/01/12 11:22:23;;;;;;;14.80;8.60;;;;;;;-0.19;100.00;102080.44;4865961;29;20112;-90
2024/01/12 11:24:50;;;;;;;16.67;8.50;;;;;;;-0.19;100.00;102068.34;4893659;29;20062;-90
2024/01/12 11:27:19;;;;;;;14.97;8.03;;;;;;;-0.20;100.00;102065.69;4884665;29;20622;-90
2024/01/12 11:29:47;;;;;;;15.27;8.07;;;;;;;-0.17;100.00;102055.41;4918003;29;20052;-90
2024/01/12 11:32:15;;;;;;;18.47;8.83;;;;;;;-0.09;100.00;102049.75;4887325;29;20087;-90
2024/01/12 11:34:42;;;;;;;15.07;7.13;;;;;;;-0.23;100.00;102043.06;4908015;29;20058;-90
2024/01/12 11:37:10;;;;;;;14.63;8.37;;;;;;;-0.15;100.00;102048.59;4886809;29;20100;-89
2024/01/12 11:39:38;;;;;;;19.27;9.43;;;;;;;-0.11;100.00;102046.19;4883306;29;20508;-90
2024/01/12 11:42:05;;;;;;;17.20;8.60;;;;;;;-0.13;100.00;102040.06;4915453;29;20169;-90
2024/01/12 11:44:33;;;;;;;21.83;8.70;;;;;;;-0.06;100.00;102028.22;4913594;29;20051;-90
2024/01/12 11:47:05;;;;;;;19.67;8.27;;;;;;;-0.16;100.00;102032.13;4868628;29;20131;-90
2024/01/12 11:49:32;;;;;;;21.10;10.30;;;;;;;-0.07;100.00;102031.66;4912833;29;20033;-90
2024/01/12 11:52:07;;;;;;;18.47;10.37;;;;;;;-0.09;100.00;102028.97;4870589;29;20481;-90
2024/01/12 11:54:34;;;;;;;26.83;10.90;;;;;;;-0.10;100.00;102024.59;4900709;29;20048;-90
2024/01/12 11:57:02;;;;;;;24.43;11.30;;;;;;;-0.06;100.00;102028.22;4917729;29;20326;-91
2024/01/12 11:59:31;;;;;;;19.83;9.47;;;;;;;-0.12;100.00;102021.03;4884250;29;20040;-90
2024/01/12 12:02:01;;;;;;;22.07;11.00;;;;;;;-0.06;100.00;102023.03;4895712;29;20102;-89
2024/01/12 12:04:31;;;;;;;18.93;10.07;;;;;;;-0.12;100.00;102008.06;4901544;29;20487;-90
2024/01/12 12:06:58;;;;;;;19.20;8.80;;;;;;;-0.12;100.00;102000.25;4882510;29;20044;-90
2024/01/12 12:09:26;;;;;;;19.13;9.33;;;;;;;-0.11;100.00;102001.16;4871015;29;20044;-89
2024/01/12 12:11:53;;;;;;;21.20;10.70;;;;;;;-0.15;100.00;101996.66;4900933;29;20055;-90
2024/01/12 12:14:21;;;;;;;25.80;10.27;;;;;;;-0.19;100.00;101994.72;4897706;29;20454;-90
2024/01/12 12:16:48;;;;;;;21.13;9.53;;;;;;;-0.12;100.00;101981.19;4896983;29;20507;-91
2024/01/12 12:19:15;;;;;;;21.73;9.97;;;;;;;-0.12;100.00;101979.47;4882873;29;20033;-91
2024/01/12 12:21:43;;;;;;;17.30;8.80;;;;;;;-0.09;100.00;101990.00;4880066;29;20056;-90
2024/01/12 12:24:11;;;;;;;19.50;9.70;;;;;;;-0.15;100.00;101981.06;4885818;29;20055;-90
2024/01/12 12:26:41;;;;;;;18.87;9.40;;;;;;;-0.20;100.00;101975.66;4870665;29;20518;-91
2024/01/12 12:29:35;;;;;;;20.13;9.77;;;;;;;-0.13;100.00;101969.91;4869519;29;20379;-91
2024/01/12 12:32:02;;;;;;;16.80;7.53;;;;;;;-0.12;100.00;101955.22;4925567;29;20131;-89
2024/01/12 12:34:32;;;;;;;16.87;8.50;;;;;;;-0.16;100.00;101949.03;4892709;29;20451;-88
2024/01/12 12:36:59;;;;;;;18.10;9.10;;;;;;;-0.25;100.00;101948.63;4894502;29;20052;-89
2024/01/12 12:39:26;;;;;;;15.73;8.70;;;;;;;-0.21;100.00;101937.53;4887706;29;20067;-89
2024/01/12 12:41:54;;;;;;;17.27;8.10;;;;;;;-0.18;100.00;101931.56;4882077;29;20131;-89
2024/01/12 12:44:22;;;;;;;20.13;10.47;;;;;;;-0.32;100.00;101931.00;4885462;29;20139;-89
2024/01/12 12:46:49;;;;;;;16.33;8.83;;;;;;;-0.23;100.00;101931.38;4885198;29;20139;-89
2024/01/12 12:49:17;;;;;;;19.23;8.70;;;;;;;-0.29;100.00;101932.00;4911902;29;20048;-89
2024/01/12 12:51:44;;;;;;;15.73;7.73;;;;;;;-0.23;100.00;101925.31;4916136;29;20052;-90
2024/01/12 12:54:11;;;;;;;14.27;7.50;;;;;;;-0.23;100.00;101918.41;4901057;29;20052;-90
2024/01/12 12:56:40;;;;;;;14.93;8.50;;;;;;;-0.24;100.00;101908.84;4916138;29;20044;-90
2024/01/12 12:59:08;;;;;;;16.73;8.33;;;;;;;-0.33;100.00;101905.84;4900921;29;20037;-90
2024/01/12 13:01:35;;;;;;;14.30;8.40;;;;;;;-0.40;100.00;101915.06;4915706;29;20059;-90
2024/01/12 13:04:02;;;;;;;20.83;9.03;;;;;;;-0.40;100.00;101909.00;4914865;29;20046;-91
2024/01/12 13:06:32;;;;;;;17.93;9.03;;;;;;;-0.39;100.00;101898.66;4890413;29;20044;-90
2024/01/12 13:09:00;;;;;;;18.47;8.47;;;;;;;-0.34;100.00;101896.25;4904404;29;20451;-90
2024/01/12 13:11:27;;;;;;;19.97;8.47;;;;;;;-0.38;100.00;101899.56;4900706;29;20055;-90
2024/01/12 13:13:54;;;;;;;18.47;9.27;;;;;;;-0.38;100.00;101910.81;4900965;29;20048;-90
2024/01/12 13:16:22;;;;;;;24.40;9.63;;;;;;;-0.33;100.00;101908.44;4900658;29;20200;-91
2024/01/12 13:18:49;;;;;;;21.03;9.63;;;;;;;-0.38;100.00;101897.84;4916339;29;20486;-91
2024/01/12 13:21:17;;;;;;;22.03;10.10;;;;;;;-0.39;100.00;101897.78;4915905;29;20052;-90
2024/01/12 13:23:44;;;;;;;18.33;8.80;;;;;;;-0.45;100.00;101906.19;4900821;29;20536;-90
2024/01/12 13:26:12;;;;;;;22.00;9.13;;;;;;;-0.46;100.00;101913.91;4900782;29;20536;-90
2024/01/12 13:28:40;;;;;;;20.40;10.50;;;;;;;-0.46;100.00;101903.53;4915784;29;20486;-91
2024/01/12 13:31:07;;;;;;;21.57;10.27;;;;;;;-0.48;100.00;101889.59;4915798;29;20046;-89
2024/01/12 13:33:36;;;;;;;24.00;10.73;;;;;;;-0.54;100.00;101900.59;4914400;29;20062;-89
2024/01/12 13:36:04;;;;;;;22.10;10.43;;;;;;;-0.50;100.00;101879.16;4886330;29;20040;-90
2024/01/12 13:38:32;;;;;;;22.80;8.67;;;;;;;-0.50;100.00;101873.97;4900123;29;20063;-91
2024/01/12 13:41:00;;;;;;;27.83;12.10;;;;;;;-0.53;100.00;101880.69;4914496;29;20051;-92
2024/01/12 13:43:27;;;;;;;23.47;11.33;;;;;;;-0.56;100.00;101889.25;4916084;29;20079;-92
2024/01/12 13:45:54;;;;;;;20.53;9.70;;;;;;;-0.59;100.00;101892.63;4915900;29;20532;-92
2024/01/12 13:48:27;;;;;;;20.70;10.10;;;;;;;-0.59;100.00;101870.94;4900768;29;20050;-91
2024/01/12 13:50:55;;;;;;;25.77;10.90;;;;;;;-0.54;100.00;101868.56;4901125;29;20048;-90
2024/01/12 13:53:22;;;;;;;17.83;8.37;;;;;;;-0.58;100.00;101881.41;4915852;29;20139;-90
2024/01/12 13:55:50;;;;;;;25.03;10.00;;;;;;;-0.50;100.00;101899.91;4916019;29;20498;-91
2024/01/12 13:58:17;;;;;;;23.30;10.30;;;;;;;-0.41;100.00;101889.06;4900210;29;20040;-91
2024/01/12 14:00:45;;;;;;;25.13;11.00;;;;;;;-0.50;100.00;101883.47;4899246;29;20052;-91
2024/01/12 14:03:12;;;;;;;27.03;11.17;;;;;;;-0.51;100.00;101885.13;4899797;29;20048;-91
2024/01/12 14:05:40;;;;;;;21.73;10.17;;;;;;;-0.47;100.00;101873.19;4891993;29;20055;-91
2024/01/12 14:08:09;;;;;;;23.97;9.90;;;;;;;-0.50;100.00;101867.88;4884510;29;20059;-91
2024/01/12 14:10:37;;;;;;;21.40;10.37;;;;;;;-0.55;100.00;101870.25;4884108;29;20043;-91
2024/01/12 14:13:05;;;;;;;25.00;10.30;;;;;;;-0.57;100.00;101859.81;4899953;29;20056;-90
2024/01/12 14:15:32;;;;;;;26.80;11.63;;;;;;;-0.63;100.00;101856.94;4884210;29;20126;-91
2024/01/12 14:17:59;;;;;;;32.93;14.63;;;;;;;-0.59;100.00;101856.28;4883769;29;20044;-91
2024/01/12 14:20:27;;;;;;;31.33;14.77;;;;;;;-0.52;100.00;101854.81;4915506;29;20051;-91
2024/01/12 14:22:54;;;;;;;29.73;14.03;;;;;;;-0.55;100.00;101866.78;4916329;29;20064;-91
2024/01/12 14:25:22;;;;;;;24.80;11.43;;;;;;;-0.67;100.00;101859.34;4906205;29;20055;-89
2024/01/12 14:27:49;;;;;;;24.10;11.37;;;;;;;-0.62;100.00;101863.91;4903165;29;20044;-89
2024/01/12 14:30:18;;;;;;;24.37;12.37;;;;;;;-0.69;100.00;101848.00;4882767;29;20134;-89
2024/01/12 14:32:45;;;;;;;22.00;10.23;;;;;;;-0.73;100.00;101834.00;4894732;29;20051;-90
2024/01/12 14:35:13;;;;;;;26.80;11.67;;;;;;;-0.67;100.00;101839.47;4893509;29;20547;-90
2024/01/12 14:37:40;;;;;;;26.70;11.93;;;;;;;-0.63;100.00;101835.28;4913303;29;20048;-89
2024/01/12 14:40:08;;;;;;;25.40;11.27;;;;;;;-0.66;100.00;101828.28;4892362;29;20457;-89
2024/01/12 14:42:36;;;;;;;25.67;10.97;;;;;;;-0.58;100.00;101826.00;4883250;29;20656;-89
2024/01/12 14:45:05;;;;;;;24.37;11.07;;;;;;;-0.57;100.00;101832.97;4899290;29;20579;-90
2024/01/12 14:47:32;;;;;;;23.33;11.47;;;;;;;-0.63;100.00;101824.91;4899087;29;20044;-90
2024/01/12 14:50:00;;;;;;;22.43;11.13;;;;;;;-0.55;100.00;101826.13;4899370;29;20040;-89
2024/01/12 14:52:28;;;;;;;28.73;12.23;;;;;;;-0.67;100.00;101829.09;4883214;29;20044;-89
2024/01/12 14:54:55;;;;;;;28.83;12.53;;;;;;;-0.62;100.00;101837.94;4898026;29;20059;-89
2024/01/12 14:57:23;;;;;;;21.90;10.43;;;;;;;-0.54;100.00;101837.41;4880129;29;20048;-89
2024/01/12 14:59:52;;;;;;;25.30;10.73;;;;;;;-0.62;100.00;101845.75;4890160;29;20568;-89
2024/01/12 15:02:19;;;;;;;25.37;12.00;;;;;;;-0.61;100.00;101852.69;4893377;29;20047;-89
2024/01/12 15:04:47;;;;;;;26.33;11.20;;;;;;;-0.68;100.00;101866.22;4903556;29;20047;-89
2024/01/12 15:07:42;;;;;;;27.53;12.07;;;;;;;-0.69;100.00;101873.94;4916421;29;20059;-93
2024/01/12 15:10:48;;;;;;;26.47;10.37;;;;;;;-0.71;100.00;101883.38;4934278;29;20084;-93
2024/01/12 15:13:17;;;;;;;33.53;13.03;;;;;;;-0.87;100.00;101893.06;4918026;29;20059;-94
2024/01/12 15:15:45;;;;;;;28.40;11.20;;;;;;;-0.87;100.00;101892.19;4915698;29;20076;-93
2024/01/12 15:18:13;;;;;;;27.07;10.77;;;;;;;-0.83;100.00;101899.28;4918323;29;20482;-92
2024/01/12 15:20:41;;;;;;;23.70;11.40;;;;;;;-0.86;100.00;101892.22;4917646;29;20048;-93
2024/01/12 15:23:09;;;;;;;32.07;12.33;;;;;;;-0.80;100.00;101889.03;4934494;29;20064;-94
2024/01/12 15:25:36;;;;;;;30.10;12.33;;;;;;;-0.89;100.00;101892.09;4931428;29;20052;-93